Time;durP1;ratioP1;P1;durP2;ratioP2;P2;SDS_P1;SDS_P2;PMS_P1;PMS_P2;Temp;Humidity;BMP_temperature;BMP_pressure;BME280_temperature;BME280_humidity;BME280_pressure;Samples;Min_cycle;Max_cycle;Signal;HPM_P1;HPM_P2
2022/04/24 00:01:00;;;;;;;2.10;2.00;;;12.80;99.90;;;;;;5100699;28;20197;-67
2022/04/24 00:03:27;;;;;;;2.40;2.30;;;12.80;99.90;;;;;;5098148;28;20210;-66
2022/04/24 00:05:55;;;;;;;2.10;2.00;;;12.70;99.90;;;;;;5089143;28;20206;-67
2022/04/24 00:08:22;;;;;;;1.90;1.80;;;12.70;99.90;;;;;;5078726;28;20226;-67
2022/04/24 00:10:50;;;;;;;2.30;2.20;;;12.90;99.90;;;;;;5088950;28;20247;-66
2022/04/24 00:13:17;;;;;;;2.00;1.90;;;12.90;99.90;;;;;;5085040;28;20202;-68
2022/04/24 00:15:44;;;;;;;2.08;1.98;;;13.00;99.90;;;;;;5084310;28;20198;-67
2022/04/24 00:18:12;;;;;;;2.15;2.05;;;12.90;99.90;;;;;;5082521;28;20280;-67
2022/04/24 00:20:39;;;;;;;2.10;2.00;;;13.00;99.90;;;;;;5092649;28;20199;-68
2022/04/24 00:23:07;;;;;;;2.00;1.90;;;13.00;99.90;;;;;;5077969;28;21403;-67
2022/04/24 00:25:34;;;;;;;2.03;1.92;;;13.00;99.90;;;;;;5075546;28;20211;-67
2022/04/24 00:28:02;;;;;;;2.08;1.98;;;13.10;99.90;;;;;;5071235;28;20349;-67
2022/04/24 00:30:29;;;;;;;1.90;1.80;;;13.10;99.90;;;;;;5074234;28;20222;-67
2022/04/24 00:32:56;;;;;;;2.00;1.90;;;13.20;99.90;;;;;;5074474;28;20273;-67
2022/04/24 00:35:23;;;;;;;2.13;2.03;;;13.10;99.90;;;;;;5076686;28;20610;-67
2022/04/24 00:37:50;;;;;;;2.00;1.90;;;13.10;99.90;;;;;;5071583;28;20661;-67
2022/04/24 00:40:19;;;;;;;2.08;1.98;;;13.10;99.90;;;;;;5075198;28;20635;-68
2022/04/24 00:42:46;;;;;;;1.90;1.80;;;13.00;99.90;;;;;;5077094;28;20205;-67
2022/04/24 00:45:13;;;;;;;2.27;2.17;;;13.00;99.90;;;;;;5080050;28;20206;-68
2022/04/24 00:47:41;;;;;;;2.10;2.00;;;13.00;99.90;;;;;;5076229;28;20235;-66
2022/04/24 00:50:09;;;;;;;2.00;1.90;;;13.00;99.90;;;;;;5082927;28;20225;-65
2022/04/24 00:52:37;;;;;;;2.13;2.03;;;12.90;99.90;;;;;;5087919;28;20213;-71
2022/04/24 00:55:05;;;;;;;1.90;1.80;;;13.00;99.90;;;;;;5097021;28;20206;-70
2022/04/24 00:57:34;;;;;;;2.10;2.00;;;13.00;99.90;;;;;;5096117;28;20214;-67
2022/04/24 01:00:01;;;;;;;2.17;2.00;;;13.00;99.90;;;;;;5097417;28;20203;-70
2022/04/24 01:02:28;;;;;;;2.30;2.20;;;13.10;99.90;;;;;;5102650;28;20206;-67
2022/04/24 01:04:57;;;;;;;2.40;2.30;;;13.10;99.90;;;;;;5089847;28;20232;-68
2022/04/24 01:07:24;;;;;;;2.10;2.00;;;13.10;99.90;;;;;;5094384;28;20602;-66
2022/04/24 01:09:51;;;;;;;2.40;2.30;;;13.10;99.90;;;;;;5072291;28;20362;-66
2022/04/24 01:12:18;;;;;;;2.33;2.23;;;13.20;99.90;;;;;;5075798;28;20239;-67
2022/04/24 01:14:47;;;;;;;2.05;1.95;;;13.20;99.90;;;;;;5084465;28;20229;-67
2022/04/24 01:17:14;;;;;;;2.00;1.90;;;13.30;99.90;;;;;;5071755;28;20281;-67
2022/04/24 01:19:41;;;;;;;2.20;2.10;;;13.30;99.90;;;;;;5077068;28;20650;-67
2022/04/24 01:22:10;;;;;;;2.20;2.10;;;13.30;99.90;;;;;;5075580;28;20211;-67
2022/04/24 01:24:37;;;;;;;2.00;1.90;;;13.20;99.90;;;;;;5077562;28;20296;-67
2022/04/24 01:27:04;;;;;;;2.20;2.10;;;13.20;99.90;;;;;;5087266;28;20246;-65
2022/04/24 01:29:32;;;;;;;1.92;1.90;;;13.20;99.90;;;;;;5083419;28;20242;-66
2022/04/24 01:31:59;;;;;;;2.00;1.90;;;13.20;99.90;;;;;;5091966;28;20211;-66
2022/04/24 01:34:26;;;;;;;2.20;2.10;;;13.20;99.90;;;;;;5087806;28;20199;-66
2022/04/24 01:36:53;;;;;;;1.90;1.85;;;13.20;99.90;;;;;;5076640;28;20250;-66
2022/04/24 01:39:22;;;;;;;2.20;2.10;;;13.10;99.90;;;;;;5086686;28;20245;-67
2022/04/24 01:41:51;;;;;;;2.28;2.17;;;13.20;99.90;;;;;;5086976;28;20282;-67
2022/04/24 01:44:18;;;;;;;2.13;2.03;;;13.20;99.90;;;;;;5093642;28;20230;-65
2022/04/24 01:46:45;;;;;;;2.70;2.50;;;13.30;99.90;;;;;;5113242;28;20205;-66
2022/04/24 01:49:13;;;;;;;2.80;2.70;;;13.20;99.90;;;;;;5113642;28;20216;-66
2022/04/24 01:51:40;;;;;;;3.25;3.05;;;13.10;99.90;;;;;;5108290;28;20745;-66
2022/04/24 01:54:07;;;;;;;2.80;2.70;;;12.90;99.90;;;;;;5083146;28;20207;-66
2022/04/24 01:56:35;;;;;;;2.60;2.50;;;12.80;99.90;;;;;;5081391;28;20195;-74
2022/04/24 01:59:02;;;;;;;2.63;2.53;;;12.80;99.90;;;;;;5085091;28;20211;-67
2022/04/24 02:01:29;;;;;;;2.70;2.60;;;12.70;99.90;;;;;;5074706;28;20230;-67
2022/04/24 02:03:57;;;;;;;2.78;2.67;;;12.60;99.90;;;;;;5075895;28;20286;-69
2022/04/24 02:06:24;;;;;;;3.08;2.97;;;12.70;99.90;;;;;;5083633;28;20196;-67
2022/04/24 02:08:51;;;;;;;3.40;3.30;;;12.80;99.90;;;;;;5080890;28;20293;-67
2022/04/24 02:11:18;;;;;;;3.47;3.17;;;12.80;99.90;;;;;;5076063;28;20227;-68
2022/04/24 02:13:46;;;;;;;2.95;2.85;;;12.70;99.90;;;;;;5073440;28;20215;-66
2022/04/24 02:16:13;;;;;;;2.92;2.80;;;12.60;99.90;;;;;;5076297;28;20214;-67
2022/04/24 02:18:40;;;;;;;2.63;2.53;;;12.60;99.90;;;;;;5074490;28;20230;-67
2022/04/24 02:21:07;;;;;;;3.08;2.97;;;12.70;99.90;;;;;;5083220;28;20203;-67
2022/04/24 02:23:34;;;;;;;3.20;3.10;;;12.70;99.90;;;;;;5072788;28;20206;-67
2022/04/24 02:26:01;;;;;;;2.90;2.80;;;12.80;99.90;;;;;;5076356;28;20210;-66
2022/04/24 02:28:29;;;;;;;3.13;2.93;;;12.70;99.90;;;;;;5092477;28;20223;-68
2022/04/24 02:30:57;;;;;;;3.00;2.90;;;12.70;99.90;;;;;;5085773;28;20214;-67
2022/04/24 02:33:24;;;;;;;3.10;3.00;;;12.80;99.90;;;;;;5074039;28;20204;-65
2022/04/24 02:35:51;;;;;;;3.10;3.00;;;12.80;99.90;;;;;;5070755;28;20199;-67
2022/04/24 02:38:18;;;;;;;2.70;2.60;;;12.90;99.90;;;;;;5085445;28;20314;-68
2022/04/24 02:40:45;;;;;;;3.10;3.00;;;12.90;99.90;;;;;;5070874;28;20199;-66
2022/04/24 02:43:12;;;;;;;3.78;3.58;;;13.00;99.90;;;;;;5078267;28;20261;-67
2022/04/24 02:45:40;;;;;;;3.97;3.78;;;13.00;99.90;;;;;;5073085;28;20214;-69
2022/04/24 02:48:08;;;;;;;3.47;3.27;;;13.00;99.90;;;;;;5076099;28;20712;-66
2022/04/24 02:50:35;;;;;;;3.10;3.00;;;13.00;99.90;;;;;;5077513;28;20235;-66
2022/04/24 02:53:03;;;;;;;3.40;3.30;;;13.10;99.90;;;;;;5081602;28;20203;-67
2022/04/24 02:55:30;;;;;;;3.22;3.13;;;13.10;99.90;;;;;;5083725;28;20207;-67
2022/04/24 02:57:57;;;;;;;3.22;3.03;;;13.10;99.90;;;;;;5083903;28;20265;-67
2022/04/24 03:00:32;;;;;;;3.30;3.10;;;13.10;99.90;;;;;;5085114;28;20260;-66
2022/04/24 03:02:59;;;;;;;2.80;2.70;;;13.10;99.90;;;;;;5096787;28;20201;-67
2022/04/24 03:05:28;;;;;;;3.10;3.00;;;13.10;99.90;;;;;;5110230;28;20266;-67
2022/04/24 03:07:55;;;;;;;3.10;3.00;;;13.10;99.90;;;;;;5108400;28;20218;-67
2022/04/24 03:10:22;;;;;;;2.60;2.50;;;13.10;99.90;;;;;;5102034;28;20297;-67
2022/04/24 03:12:49;;;;;;;2.60;2.50;;;13.10;99.90;;;;;;5103986;28;20202;-67
2022/04/24 03:15:16;;;;;;;2.60;2.50;;;13.00;99.90;;;;;;5099891;28;20206;-67
2022/04/24 03:17:44;;;;;;;2.00;1.90;;;12.90;99.90;;;;;;5093618;28;20227;-70
2022/04/24 03:20:13;;;;;;;1.47;1.43;;;12.80;99.90;;;;;;5086305;28;20227;-67
2022/04/24 03:22:41;;;;;;;1.10;1.10;;;12.70;99.90;;;;;;5084453;28;20230;-67
2022/04/24 03:25:10;;;;;;;0.90;0.90;;;12.60;99.90;;;;;;5094671;28;20289;-67
2022/04/24 03:27:38;;;;;;;2.65;1.10;;;12.40;99.90;;;;;;5086666;28;20218;-67
2022/04/24 03:30:07;;;;;;;0.90;0.90;;;12.30;99.90;;;;;;5082311;28;20276;-67
2022/04/24 03:32:34;;;;;;;0.60;0.60;;;12.20;99.90;;;;;;5073245;28;20203;-67
2022/04/24 03:35:02;;;;;;;0.80;0.80;;;12.10;99.90;;;;;;5074304;28;20210;-66
2022/04/24 03:37:29;;;;;;;0.70;0.70;;;12.10;99.90;;;;;;5074660;28;20234;-66
2022/04/24 03:39:57;;;;;;;0.90;0.90;;;12.00;99.90;;;;;;5075271;28;20207;-68
2022/04/24 03:42:25;;;;;;;0.80;0.80;;;12.00;99.90;;;;;;5074393;28;20196;-67
2022/04/24 03:44:54;;;;;;;0.60;0.60;;;12.00;99.90;;;;;;5075232;28;20207;-67
2022/04/24 03:47:21;;;;;;;0.57;0.57;;;12.00;99.90;;;;;;5082215;28;20226;-66
2022/04/24 03:49:48;;;;;;;0.50;0.50;;;12.00;99.90;;;;;;5086107;28;20206;-67
2022/04/24 03:52:15;;;;;;;0.50;0.50;;;11.90;99.90;;;;;;5084806;28;20246;-66
2022/04/24 03:54:43;;;;;;;0.30;0.30;;;11.90;99.90;;;;;;5089716;28;20198;-67
2022/04/24 03:57:12;;;;;;;0.30;0.30;;;11.90;99.90;;;;;;5086230;28;20620;-67
2022/04/24 03:59:39;;;;;;;0.40;0.40;;;11.90;99.90;;;;;;5095775;28;20202;-67
2022/04/24 04:02:06;;;;;;;0.20;0.20;;;11.80;99.90;;;;;;5095347;28;20719;-66
2022/04/24 04:04:34;;;;;;;0.50;0.50;;;11.70;99.90;;;;;;5095697;28;20202;-67
2022/04/24 04:07:01;;;;;;;0.30;0.30;;;11.80;99.90;;;;;;5111489;28;20223;-66
2022/04/24 04:09:28;;;;;;;0.20;0.20;;;11.70;99.90;;;;;;5113860;28;20191;-67
2022/04/24 04:11:54;;;;;;;0.20;0.20;;;11.60;99.90;;;;;;5113088;28;20221;-67
2022/04/24 04:14:23;;;;;;;0.20;0.20;;;11.60;99.90;;;;;;5108307;28;20232;-65
2022/04/24 04:16:50;;;;;;;0.13;0.13;;;11.60;99.90;;;;;;5091565;28;20305;-67
2022/04/24 04:19:17;;;;;;;0.90;0.23;;;11.50;99.90;;;;;;5084613;28;20285;-67
2022/04/24 04:21:44;;;;;;;0.20;0.20;;;11.50;99.90;;;;;;5095241;28;20271;-66
2022/04/24 04:24:12;;;;;;;0.30;0.30;;;11.50;99.90;;;;;;5090975;28;20202;-67
2022/04/24 04:26:39;;;;;;;0.25;0.25;;;11.40;99.90;;;;;;5080430;28;20199;-65
2022/04/24 04:29:07;;;;;;;0.20;0.20;;;11.40;99.90;;;;;;5076549;28;20230;-66
2022/04/24 04:31:36;;;;;;;0.40;0.40;;;11.30;99.90;;;;;;5076528;28;20699;-67
2022/04/24 04:34:03;;;;;;;0.30;0.30;;;11.30;99.90;;;;;;5083778;28;20214;-67
2022/04/24 04:36:30;;;;;;;0.30;0.30;;;11.20;99.90;;;;;;5085150;28;20804;-66
2022/04/24 04:38:57;;;;;;;0.53;0.40;;;11.10;99.90;;;;;;5076515;28;20207;-66
2022/04/24 04:41:24;;;;;;;0.33;0.27;;;11.10;99.90;;;;;;5091069;28;20253;-66
2022/04/24 04:43:51;;;;;;;0.20;0.20;;;11.00;99.90;;;;;;5097605;28;20206;-67
2022/04/24 04:46:18;;;;;;;0.30;0.30;;;11.00;99.90;;;;;;5102380;28;20228;-67
2022/04/24 04:48:46;;;;;;;0.40;0.40;;;11.00;99.90;;;;;;5101774;28;20226;-66
2022/04/24 04:51:13;;;;;;;0.40;0.40;;;11.00;99.90;;;;;;5097469;28;20231;-65
2022/04/24 04:53:40;;;;;;;0.10;0.10;;;10.90;99.90;;;;;;5090622;28;20647;-66
2022/04/24 04:56:07;;;;;;;0.22;0.22;;;10.90;99.90;;;;;;5098616;28;20696;-66
2022/04/24 04:58:34;;;;;;;0.40;0.40;;;10.90;99.90;;;;;;5097834;28;20226;-71
2022/04/24 05:01:02;;;;;;;0.28;0.28;;;11.00;99.90;;;;;;5099177;28;20210;-67
2022/04/24 05:03:30;;;;;;;0.30;0.30;;;11.00;99.90;;;;;;5098999;28;20209;-65
2022/04/24 05:05:59;;;;;;;0.30;0.30;;;10.90;99.90;;;;;;5098490;28;20211;-66
2022/04/24 05:08:26;;;;;;;0.20;0.20;;;10.90;99.90;;;;;;5098454;28;20776;-66
2022/04/24 05:10:53;;;;;;;0.37;0.37;;;11.00;99.90;;;;;;5098492;28;20202;-66
2022/04/24 05:13:20;;;;;;;0.22;0.22;;;10.90;99.90;;;;;;5098957;28;20203;-66
2022/04/24 05:15:47;;;;;;;0.27;0.20;;;11.00;99.90;;;;;;5099009;28;20563;-69
2022/04/24 05:20:44;;;;;;;0.40;0.40;;;11.10;99.90;;;;;;5049597;28;20211;-68
2022/04/24 05:23:14;;;;;;;0.20;0.20;;;11.00;99.90;;;;;;5065500;28;20227;-68
2022/04/24 05:25:41;;;;;;;0.10;0.10;;;11.10;99.90;;;;;;5047714;28;20236;-68
2022/04/24 05:28:08;;;;;;;0.88;0.40;;;11.10;99.90;;;;;;5054277;28;20204;-69
2022/04/24 05:30:35;;;;;;;0.20;0.20;;;11.10;99.90;;;;;;5035158;28;20644;-67
2022/04/24 05:33:02;;;;;;;0.25;0.25;;;11.20;99.90;;;;;;5035603;28;20315;-68
2022/04/24 05:35:29;;;;;;;0.17;0.17;;;11.20;99.90;;;;;;5038965;28;20291;-67
2022/04/24 05:37:56;;;;;;;0.20;0.20;;;11.20;99.90;;;;;;5035334;28;20259;-68
2022/04/24 05:40:24;;;;;;;0.20;0.20;;;11.20;99.90;;;;;;5043485;28;20291;-67
2022/04/24 05:42:53;;;;;;;0.13;0.13;;;11.30;99.90;;;;;;5039203;28;20296;-68
2022/04/24 05:45:22;;;;;;;0.23;0.23;;;11.30;99.90;;;;;;5042046;28;20704;-68
2022/04/24 05:47:49;;;;;;;0.10;0.10;;;11.30;99.90;;;;;;5039521;28;20205;-69
2022/04/24 05:50:16;;;;;;;0.40;0.40;;;11.30;99.90;;;;;;5040371;28;20369;-72
2022/04/24 05:52:44;;;;;;;0.20;0.20;;;11.30;99.90;;;;;;5036299;28;20259;-67
2022/04/24 05:55:11;;;;;;;0.30;0.30;;;11.30;99.90;;;;;;5025506;28;20209;-68
2022/04/24 05:57:40;;;;;;;0.23;0.23;;;11.40;99.90;;;;;;5032765;28;20217;-69
2022/04/24 06:00:09;;;;;;;0.30;0.30;;;11.30;99.90;;;;;;5034377;28;20260;-68
2022/04/24 06:02:35;;;;;;;0.40;0.40;;;11.30;99.90;;;;;;5036573;28;20196;-68
2022/04/24 06:05:02;;;;;;;0.50;0.50;;;11.30;99.90;;;;;;5039856;28;20231;-68
2022/04/24 06:07:29;;;;;;;0.60;0.60;;;11.20;99.90;;;;;;5040929;28;20240;-67
2022/04/24 06:09:56;;;;;;;0.60;0.60;;;11.10;99.90;;;;;;5028468;28;20288;-68
2022/04/24 06:12:23;;;;;;;1.00;1.00;;;11.10;99.90;;;;;;5048775;28;20248;-68
2022/04/24 06:14:51;;;;;;;0.93;0.93;;;11.20;99.90;;;;;;5046089;28;20212;-69
2022/04/24 06:17:18;;;;;;;0.70;0.70;;;11.20;99.90;;;;;;5027965;28;20237;-68
2022/04/24 06:19:45;;;;;;;0.80;0.80;;;11.10;99.90;;;;;;5033613;28;20264;-68
2022/04/24 06:22:12;;;;;;;0.70;0.70;;;11.10;99.90;;;;;;5041424;28;20284;-68
2022/04/24 06:24:39;;;;;;;0.50;0.50;;;11.10;99.90;;;;;;5041159;28;20684;-68
2022/04/24 06:27:06;;;;;;;0.40;0.40;;;11.20;99.90;;;;;;5042738;28;20287;-68
2022/04/24 06:29:33;;;;;;;0.10;0.10;;;11.20;99.90;;;;;;5036805;28;20275;-69
2022/04/24 06:32:04;;;;;;;0.27;0.27;;;11.20;99.90;;;;;;5032458;28;20311;-69
2022/04/24 06:34:31;;;;;;;0.40;0.40;;;11.20;99.90;;;;;;5039999;28;20291;-68
2022/04/24 06:36:58;;;;;;;0.30;0.30;;;11.30;99.90;;;;;;5034297;28;20581;-68
2022/04/24 06:39:25;;;;;;;0.30;0.30;;;11.30;99.90;;;;;;5030079;28;20228;-68
2022/04/24 06:41:52;;;;;;;0.30;0.30;;;11.30;99.90;;;;;;5026574;28;20720;-68
2022/04/24 06:44:20;;;;;;;0.30;0.30;;;11.30;99.90;;;;;;5032164;28;20205;-68
2022/04/24 06:46:47;;;;;;;0.40;0.40;;;11.30;99.90;;;;;;5034244;28;20205;-69
2022/04/24 06:49:16;;;;;;;0.30;0.30;;;11.30;99.90;;;;;;5033348;28;20228;-67
2022/04/24 06:51:43;;;;;;;0.45;0.45;;;11.30;99.90;;;;;;5030988;28;20228;-68
2022/04/24 06:54:09;;;;;;;0.67;0.60;;;11.40;99.90;;;;;;5022540;28;20210;-68
2022/04/24 06:56:36;;;;;;;0.30;0.30;;;11.40;99.90;;;;;;5031452;28;20641;-68
2022/04/24 06:59:03;;;;;;;0.60;0.60;;;11.40;99.90;;;;;;5035443;28;20220;-67
2022/04/24 07:01:30;;;;;;;0.90;0.90;;;11.30;99.90;;;;;;5034602;28;20228;-69
2022/04/24 07:03:57;;;;;;;0.90;0.90;;;11.40;99.90;;;;;;5032874;28;20280;-69
2022/04/24 07:06:25;;;;;;;0.80;0.80;;;11.40;99.90;;;;;;5032514;28;20315;-68
2022/04/24 07:08:52;;;;;;;0.70;0.70;;;11.60;99.90;;;;;;5029122;28;20713;-66
2022/04/24 07:11:21;;;;;;;0.70;0.70;;;11.40;99.90;;;;;;5032258;28;20659;-69
2022/04/24 07:13:48;;;;;;;0.77;0.77;;;11.30;99.90;;;;;;5030457;28;20598;-69
2022/04/24 07:16:15;;;;;;;0.90;0.90;;;11.30;99.90;;;;;;5032451;28;20201;-67
2022/04/24 07:18:41;;;;;;;0.60;0.60;;;11.40;99.90;;;;;;5032341;28;20320;-69
2022/04/24 07:21:08;;;;;;;0.70;0.70;;;11.40;99.90;;;;;;5033661;28;20228;-67
2022/04/24 07:23:37;;;;;;;0.47;0.47;;;11.40;99.90;;;;;;5034838;28;20237;-70
2022/04/24 07:26:04;;;;;;;0.50;0.50;;;11.40;99.90;;;;;;5038347;28;20213;-69
2022/04/24 07:28:32;;;;;;;0.60;0.60;;;11.40;99.90;;;;;;5038260;28;20247;-69
2022/04/24 07:30:59;;;;;;;0.40;0.40;;;11.30;99.90;;;;;;5040674;28;20554;-68
2022/04/24 07:33:26;;;;;;;0.50;0.50;;;11.30;99.90;;;;;;5039081;28;20311;-68
2022/04/24 07:35:53;;;;;;;0.40;0.40;;;11.40;99.90;;;;;;5032894;28;20209;-67
2022/04/24 07:38:20;;;;;;;0.55;0.55;;;11.40;99.90;;;;;;5031494;28;20207;-68
2022/04/24 07:40:48;;;;;;;0.30;0.30;;;11.40;99.90;;;;;;5030202;28;20671;-67
2022/04/24 07:43:15;;;;;;;0.40;0.40;;;11.40;99.90;;;;;;5030025;28;20201;-69
2022/04/24 07:45:44;;;;;;;0.30;0.30;;;11.40;99.90;;;;;;5031789;28;20619;-70
2022/04/24 07:48:13;;;;;;;0.40;0.40;;;11.50;99.90;;;;;;5035964;28;20228;-69
2022/04/24 07:50:41;;;;;;;0.30;0.30;;;11.50;99.90;;;;;;5035274;28;20204;-69
2022/04/24 07:53:09;;;;;;;0.60;0.60;;;11.50;99.90;;;;;;5032835;28;20640;-68
2022/04/24 07:55:36;;;;;;;0.80;0.80;;;11.60;99.90;;;;;;5028502;28;20288;-69
2022/04/24 07:58:05;;;;;;;0.50;0.50;;;11.70;99.90;;;;;;5033782;28;20219;-69
2022/04/24 08:00:33;;;;;;;0.30;0.30;;;11.70;99.90;;;;;;5034104;28;20301;-69
2022/04/24 08:03:02;;;;;;;0.50;0.50;;;11.70;99.90;;;;;;5032324;28;20288;-69
2022/04/24 08:05:31;;;;;;;0.50;0.50;;;11.70;99.90;;;;;;5032629;28;20200;-68
2022/04/24 08:07:59;;;;;;;0.60;0.60;;;11.80;99.90;;;;;;5027552;28;20300;-68
2022/04/24 08:10:28;;;;;;;0.40;0.40;;;11.80;99.90;;;;;;5034168;28;20228;-68
2022/04/24 08:12:55;;;;;;;0.47;0.47;;;11.80;99.90;;;;;;5041794;28;20224;-69
2022/04/24 08:15:24;;;;;;;0.30;0.30;;;11.80;99.90;;;;;;5032482;28;20216;-68
2022/04/24 08:17:51;;;;;;;0.40;0.40;;;11.80;99.90;;;;;;5022894;28;20197;-68
2022/04/24 08:20:19;;;;;;;0.30;0.30;;;11.80;99.90;;;;;;5027110;28;20307;-69
2022/04/24 08:22:47;;;;;;;0.30;0.30;;;11.80;99.90;;;;;;5028295;28;20732;-68
2022/04/24 08:25:17;;;;;;;0.23;0.23;;;11.80;99.90;;;;;;5028567;28;20243;-69
2022/04/24 08:27:44;;;;;;;0.40;0.40;;;11.80;99.90;;;;;;5030223;28;20201;-68
2022/04/24 08:30:13;;;;;;;0.30;0.30;;;11.90;99.90;;;;;;5031583;28;20262;-68
2022/04/24 08:32:42;;;;;;;0.27;0.27;;;11.90;99.90;;;;;;5026617;28;20221;-68
2022/04/24 08:35:11;;;;;;;0.30;0.30;;;12.00;99.90;;;;;;5028428;28;20205;-67
2022/04/24 08:37:39;;;;;;;0.30;0.30;;;12.00;99.90;;;;;;5030931;28;20204;-68
2022/04/24 08:40:08;;;;;;;0.20;0.20;;;12.10;99.90;;;;;;5023293;28;20232;-69
2022/04/24 08:42:35;;;;;;;0.20;0.20;;;12.10;99.90;;;;;;5031074;28;20677;-69
2022/04/24 08:45:03;;;;;;;0.30;0.30;;;12.20;99.90;;;;;;5031764;28;20208;-68
2022/04/24 08:47:30;;;;;;;0.40;0.40;;;12.10;99.90;;;;;;5030525;28;20284;-69
2022/04/24 08:49:59;;;;;;;0.25;0.25;;;12.10;99.90;;;;;;5023401;28;20315;-69
2022/04/24 08:52:28;;;;;;;0.40;0.40;;;12.20;99.90;;;;;;5027155;28;20260;-68
2022/04/24 08:54:56;;;;;;;0.53;0.53;;;12.30;99.90;;;;;;5028490;28;20519;-68
2022/04/24 08:57:26;;;;;;;0.60;0.60;;;12.20;99.90;;;;;;5046074;28;20207;-68
2022/04/24 08:59:54;;;;;;;0.23;0.23;;;12.20;99.90;;;;;;5033816;28;20418;-70
2022/04/24 09:02:22;;;;;;;0.30;0.30;;;12.10;99.90;;;;;;5029964;28;20197;-68
2022/04/24 09:04:49;;;;;;;0.30;0.30;;;12.10;99.90;;;;;;5039416;28;20291;-69
2022/04/24 09:07:18;;;;;;;0.67;0.67;;;12.10;99.90;;;;;;5041693;28;20208;-68
2022/04/24 09:09:46;;;;;;;0.40;0.40;;;12.10;99.90;;;;;;5043421;28;20239;-68
2022/04/24 09:12:16;;;;;;;0.40;0.40;;;12.20;99.90;;;;;;5044108;28;20260;-69
2022/04/24 09:14:47;;;;;;;0.57;0.57;;;12.30;99.90;;;;;;5029919;28;20586;-68
2022/04/24 09:17:18;;;;;;;0.47;0.47;;;12.30;99.90;;;;;;5031175;28;20225;-69
2022/04/24 09:19:46;;;;;;;0.40;0.40;;;12.30;99.90;;;;;;5031175;28;20311;-69
2022/04/24 09:22:13;;;;;;;0.40;0.40;;;12.30;99.90;;;;;;5030852;28;20295;-67
2022/04/24 09:24:43;;;;;;;0.40;0.40;;;12.30;99.90;;;;;;5031127;28;20698;-68
2022/04/24 09:27:12;;;;;;;0.40;0.40;;;12.30;99.90;;;;;;5030770;28;20209;-67
2022/04/24 09:29:40;;;;;;;0.40;0.40;;;12.40;99.90;;;;;;5031141;28;20228;-68
2022/04/24 09:32:11;;;;;;;0.20;0.20;;;12.50;99.90;;;;;;5030845;28;20686;-69
2022/04/24 09:34:39;;;;;;;0.37;0.37;;;12.50;99.90;;;;;;5030276;28;20729;-68
2022/04/24 09:37:09;;;;;;;0.40;0.40;;;12.50;99.90;;;;;;5031358;28;20205;-67
2022/04/24 09:39:37;;;;;;;0.30;0.30;;;12.60;99.90;;;;;;5031405;28;20221;-68
2022/04/24 09:42:07;;;;;;;0.20;0.20;;;12.60;99.90;;;;;;5035470;28;20208;-68
2022/04/24 09:44:43;;;;;;;0.40;0.40;;;12.70;99.90;;;;;;5043897;28;20269;-68
2022/04/24 09:47:11;;;;;;;0.23;0.23;;;12.70;99.90;;;;;;5055427;28;20196;-67
2022/04/24 09:49:39;;;;;;;0.40;0.40;;;12.80;99.90;;;;;;5049071;28;20231;-68
2022/04/24 09:52:11;;;;;;;0.40;0.40;;;12.90;99.90;;;;;;5041703;28;20213;-69
2022/04/24 09:54:40;;;;;;;0.30;0.30;;;13.00;99.90;;;;;;5033684;28;20209;-68
2022/04/24 09:57:10;;;;;;;0.27;0.27;;;13.00;99.90;;;;;;5033896;28;20656;-66
2022/04/24 09:59:38;;;;;;;0.30;0.30;;;13.00;99.90;;;;;;5032934;28;20235;-67
2022/04/24 10:02:06;;;;;;;0.13;0.13;;;13.10;99.90;;;;;;5033303;28;20291;-69
2022/04/24 10:04:38;;;;;;;0.30;0.30;;;13.10;99.90;;;;;;5029364;28;20738;-68
2022/04/24 10:07:07;;;;;;;0.23;0.23;;;13.20;99.90;;;;;;5034334;28;20211;-67
2022/04/24 10:09:35;;;;;;;0.30;0.30;;;13.10;99.90;;;;;;5049153;28;20225;-68
2022/04/24 10:12:06;;;;;;;0.30;0.30;;;13.00;99.90;;;;;;5049220;28;20204;-69
2022/04/24 10:14:39;;;;;;;0.43;0.43;;;13.10;99.90;;;;;;5041553;28;20327;-68
2022/04/24 10:17:39;;;;;;;0.47;0.47;;;13.30;99.90;;;;;;5034282;28;20246;-67
2022/04/24 10:20:23;;;;;;;0.28;0.28;;;13.30;99.90;;;;;;5033174;28;20327;-68
2022/04/24 10:22:54;;;;;;;0.30;0.30;;;13.30;99.90;;;;;;5035898;28;20217;-68
2022/04/24 10:25:30;;;;;;;0.30;0.30;;;13.40;99.90;;;;;;5035782;28;20280;-68
2022/04/24 10:27:58;;;;;;;0.23;0.23;;;13.30;99.90;;;;;;5034214;28;20200;-68
2022/04/24 10:30:27;;;;;;;0.20;0.20;;;13.20;99.90;;;;;;5030645;28;20303;-68
2022/04/24 10:33:18;;;;;;;0.40;0.40;;;13.20;99.90;;;;;;5031696;28;20243;-68
2022/04/24 10:35:50;;;;;;;0.45;0.45;;;13.20;99.90;;;;;;5032537;28;20284;-67
2022/04/24 10:38:18;;;;;;;0.22;0.22;;;13.20;99.90;;;;;;5032366;28;20201;-67
2022/04/24 10:40:57;;;;;;;0.30;0.30;;;13.20;99.90;;;;;;5031042;28;20201;-68
2022/04/24 10:43:25;;;;;;;0.20;0.20;;;13.20;99.90;;;;;;5032619;28;20199;-70
2022/04/24 10:45:54;;;;;;;0.13;0.13;;;13.20;99.90;;;;;;5032765;28;20220;-68
2022/04/24 10:48:21;;;;;;;0.50;0.50;;;13.30;99.90;;;;;;5031586;28;20292;-68
2022/04/24 10:50:49;;;;;;;0.40;0.40;;;13.30;99.90;;;;;;5032453;28;20205;-67
2022/04/24 10:53:16;;;;;;;0.50;0.50;;;13.40;99.90;;;;;;5032632;28;20223;-67
2022/04/24 10:55:44;;;;;;;0.30;0.30;;;13.40;99.90;;;;;;5032640;28;20209;-67
2022/04/24 10:58:25;;;;;;;0.30;0.30;;;13.50;99.90;;;;;;5031660;28;20243;-67
2022/04/24 11:00:54;;;;;;;0.50;0.50;;;13.60;99.90;;;;;;5030464;28;20581;-67
2022/04/24 11:03:21;;;;;;;0.30;0.30;;;13.60;99.90;;;;;;5030747;28;20232;-68
2022/04/24 11:05:49;;;;;;;0.40;0.40;;;13.60;99.90;;;;;;5026343;28;20315;-68
2022/04/24 11:08:20;;;;;;;0.40;0.40;;;13.70;99.90;;;;;;5030366;28;20572;-66
2022/04/24 11:10:48;;;;;;;1.03;0.40;;;13.70;99.90;;;;;;5027810;28;20291;-68
2022/04/24 11:13:17;;;;;;;0.40;0.40;;;13.80;99.90;;;;;;5033204;28;20274;-67
2022/04/24 11:15:47;;;;;;;0.50;0.50;;;13.80;99.90;;;;;;5033492;28;20211;-68
2022/04/24 11:18:21;;;;;;;0.40;0.40;;;13.80;99.90;;;;;;5032807;28;20209;-68
2022/04/24 11:21:00;;;;;;;0.30;0.30;;;13.90;99.90;;;;;;5081201;22;20308;-62
2022/04/24 11:23:29;;;;;;;0.30;0.30;;;13.80;99.90;;;;;;5061071;28;20264;-63
2022/04/24 11:25:56;;;;;;;0.30;0.30;;;13.80;99.90;;;;;;5064053;28;20286;-63
2022/04/24 11:28:38;;;;;;;0.30;0.30;;;13.80;99.90;;;;;;5073493;28;20508;-63
2022/04/24 11:31:13;;;;;;;0.20;0.20;;;13.60;99.90;;;;;;5074292;28;20223;-62
2022/04/24 11:33:54;;;;;;;0.30;0.30;;;13.50;99.90;;;;;;5074003;28;20226;-63
2022/04/24 11:36:22;;;;;;;0.50;0.50;;;13.40;99.90;;;;;;5074747;28;20294;-62
2022/04/24 11:38:50;;;;;;;0.30;0.30;;;13.30;99.90;;;;;;5073752;28;20206;-63
2022/04/24 11:41:17;;;;;;;0.30;0.30;;;13.30;99.90;;;;;;5074192;28;20230;-64
2022/04/24 11:43:44;;;;;;;0.30;0.30;;;13.40;99.90;;;;;;5073663;28;20207;-63
2022/04/24 11:51:42;;;;;;;0.22;0.22;;;13.20;99.90;;;;;;5072593;28;20245;-62
2022/04/24 11:54:11;;;;;;;0.40;0.40;;;13.30;99.90;;;;;;5072573;28;20692;-62
2022/04/24 11:56:39;;;;;;;0.20;0.20;;;13.20;99.90;;;;;;5071183;28;20290;-62
2022/04/24 11:59:14;;;;;;;0.40;0.40;;;13.30;99.90;;;;;;5071762;28;20294;-62
2022/04/24 12:01:41;;;;;;;0.40;0.40;;;13.40;99.90;;;;;;5072467;28;20301;-62
2022/04/24 12:04:09;;;;;;;0.40;0.40;;;13.40;99.90;;;;;;5071550;28;20290;-62
2022/04/24 12:06:36;;;;;;;0.20;0.20;;;13.40;99.90;;;;;;5072792;28;20263;-62
2022/04/24 12:09:10;;;;;;;0.30;0.30;;;13.30;99.90;;;;;;5071379;28;20203;-61
2022/04/24 12:11:37;;;;;;;0.30;0.30;;;13.30;99.90;;;;;;5064945;28;20242;-63
2022/04/24 12:14:07;;;;;;;0.50;0.50;;;13.20;99.90;;;;;;5071720;28;20318;-62
2022/04/24 12:16:35;;;;;;;0.30;0.30;;;13.10;99.90;;;;;;5071953;28;20621;-62
2022/04/24 12:19:03;;;;;;;0.30;0.30;;;13.30;99.90;;;;;;5071883;28;20231;-62
2022/04/24 12:21:33;;;;;;;0.37;0.23;;;13.30;99.90;;;;;;5074698;28;20195;-62
2022/04/24 12:24:00;;;;;;;0.40;0.40;;;13.30;99.90;;;;;;5092603;28;20234;-61
2022/04/24 12:26:27;;;;;;;0.30;0.30;;;13.30;99.90;;;;;;5092866;28;20238;-63
2022/04/24 12:28:54;;;;;;;0.30;0.30;;;13.30;99.90;;;;;;5093133;28;20248;-61
2022/04/24 12:31:24;;;;;;;0.30;0.30;;;13.30;99.90;;;;;;5094632;28;20646;-64
2022/04/24 12:33:52;;;;;;;0.37;0.37;;;13.40;99.90;;;;;;5093290;28;20230;-62
2022/04/24 12:36:20;;;;;;;0.20;0.20;;;13.50;99.90;;;;;;5093060;28;20206;-62
2022/04/24 12:38:59;;;;;;;0.30;0.30;;;13.50;99.90;;;;;;5093046;28;20215;-61
2022/04/24 12:41:27;;;;;;;0.20;0.20;;;13.50;99.90;;;;;;5092729;28;20245;-63
2022/04/24 12:43:56;;;;;;;0.83;0.83;;;13.40;99.90;;;;;;5092769;28;20203;-63
2022/04/24 12:46:22;;;;;;;0.52;0.52;;;13.40;99.90;;;;;;5091941;28;20269;-64
2022/04/24 12:48:51;;;;;;;0.60;0.57;;;13.30;99.90;;;;;;5091475;28;20209;-62
2022/04/24 12:51:18;;;;;;;0.40;0.40;;;13.30;99.90;;;;;;5092774;28;20269;-61
2022/04/24 12:53:45;;;;;;;0.40;0.40;;;13.20;99.90;;;;;;5093690;28;20307;-63
2022/04/24 12:56:14;;;;;;;0.40;0.40;;;13.10;99.90;;;;;;5095341;28;20736;-62
2022/04/24 12:58:41;;;;;;;0.30;0.30;;;13.10;99.90;;;;;;5093711;28;20266;-62
2022/04/24 13:01:11;;;;;;;0.60;0.60;;;13.20;99.90;;;;;;5093264;28;20309;-64